Time,TemperatureF,DewpointF,PressureIn,WindDirection,WindDirectionDegrees,WindSpeedMPH,WindSpeedGustMPH,Humidity,HourlyPrecipIn,Conditions,Clouds,dailyrainin,SoftwareType,DateUTC
2013-04-25 00:00:00,38.5,35.0,30.16,West,270,3.0,5.8,87,0.00,RA,,0.00,WeatherDisplay:10.37,2013-04-25 04:00:00,
2013-04-25 00:01:00,38.7,35.2,30.16,West,270,0.7,5.8,87,0.00,RA,,0.00,WeatherDisplay:10.37,2013-04-25 04:01:00,
2013-04-25 00:02:00,38.7,35.2,30.15,WNW,292,2.9,5.3,87,0.00,RA,,0.00,WeatherDisplay:10.37,2013-04-25 04:02:00,
2013-04-25 00:04:00,38.7,35.2,30.15,SW,225,4.5,5.8,87,0.00,RA,,0.00,WeatherDisplay:10.37,2013-04-25 04:04:00,
2013-04-25 00:05:00,38.7,35.2,30.15,NNW,338,5.5,7.0,87,0.00,RA,,0.00,WeatherDisplay:10.37,2013-04-25 04:05:00,
2013-04-25 00:06:00,38.7,34.9,30.15,WSW,248,6.2,7.8,86,0.00,RA,,0.00,WeatherDisplay:10.37,2013-04-25 04:06:00,
2013-04-25 00:11:00,38.8,35.0,30.15,WSW,248,4.4,7.8,86,0.00,RA,,0.00,WeatherDisplay:10.37,2013-04-25 04:11:00,
2013-04-25 00:16:00,39.0,35.2,30.16,West,270,5.2,6.1,86,0.00,OVC,,0.00,WeatherDisplay:10.37,2013-04-25 04:16:00,
2013-04-25 00:21:00,38.8,35.3,30.16,WSW,248,2.9,8.1,87,0.00,OVC,,0.00,WeatherDisplay:10.37,2013-04-25 04:21:00,
2013-04-25 00:26:00,38.7,35.5,30.16,West,270,4.0,5.8,88,0.00,OVC,,0.00,WeatherDisplay:10.37,2013-04-25 04:26:00,
2013-04-25 00:31:00,38.8,35.6,30.16,WNW,292,4.4,4.6,88,0.00,OVC,,0.00,WeatherDisplay:10.37,2013-04-25 04:31:00,
2013-04-25 00:36:00,39.0,35.5,30.16,NNW,338,3.7,5.3,87,0.00,OVC,,0.00,WeatherDisplay:10.37,2013-04-25 04:36:00,
2013-04-25 00:41:00,39.0,35.5,30.16,SW,225,1.6,4.6,87,0.00,OVC,,0.00,WeatherDisplay:10.37,2013-04-25 04:41:00,
2013-04-25 00:46:00,39.0,35.5,30.16,SW,225,8.3,10.4,87,0.00,OVC,,0.00,WeatherDisplay:10.37,2013-04-25 04:46:00,
2013-04-25 00:51:00,39.0,35.7,30.17,NW,315,4.6,9.2,88,0.00,OVC,,0.00,WeatherDisplay:10.37,2013-04-25 04:51:00,
2013-04-25 00:56:00,38.7,36.0,30.17,West,270,5.6,7.0,90,0.00,OVC,,0.00,WeatherDisplay:10.37,2013-04-25 04:56:00,
2013-04-25 01:01:00,38.7,35.7,30.16,West,270,3.3,5.8,89,0.00,OVC,,0.00,WeatherDisplay:10.37,2013-04-25 05:01:00,
2013-04-25 01:06:00,38.5,35.8,30.16,South,180,4.9,9.2,90,0.00,OVC,,0.00,WeatherDisplay:10.37,2013-04-25 05:06:00,
2013-04-25 01:11:00,38.5,35.8,30.16,WNW,292,4.3,7.0,90,0.00,OVC,,0.00,WeatherDisplay:10.37,2013-04-25 05:11:00,
2013-04-25 01:16:00,38.5,35.8,30.17,WNW,292,2.9,5.8,90,0.00,OVC,,0.00,WeatherDisplay:10.37,2013-04-25 05:16:00,
2013-04-25 01:21:00,38.5,35.8,30.17,NNW,338,2.3,4.6,90,0.00,OVC,,0.00,WeatherDisplay:10.37,2013-04-25 05:21:00,
2013-04-25 01:27:00,38.5,36.1,30.17,SW,225,3.5,5.8,91,0.00,OVC,,0.00,WeatherDisplay:10.37,2013-04-25 05:27:00,
2013-04-25 01:32:00,38.5,36.1,30.17,WSW,248,3.8,5.8,91,0.00,OVC,,0.00,WeatherDisplay:10.37,2013-04-25 05:32:00,
2013-04-25 01:37:00,38.5,36.1,30.17,WSW,248,0.0,2.3,91,0.00,OVC,,0.00,WeatherDisplay:10.37,2013-04-25 05:37:00,
2013-04-25 01:42:00,38.5,36.1,30.18,WNW,292,3.7,4.4,91,0.00,OVC,,0.00,WeatherDisplay:10.37,2013-04-25 05:42:00,
2013-04-25 01:47:00,38.3,35.9,30.18,West,270,7.5,8.7,91,0.00,OVC,,0.00,WeatherDisplay:10.37,2013-04-25 05:47:00,
2013-04-25 01:52:00,38.3,35.6,30.18,West,270,1.8,4.6,90,0.00,OVC,,0.00,WeatherDisplay:10.37,2013-04-25 05:52:00,
2013-04-25 01:57:00,38.1,35.1,30.18,WSW,248,4.0,5.8,89,0.00,OVC,,0.00,WeatherDisplay:10.37,2013-04-25 05:57:00,
2013-04-25 02:02:00,38.1,35.1,30.18,WSW,248,3.8,4.6,89,0.00,OVC,,0.00,WeatherDisplay:10.37,2013-04-25 06:02:00,
2013-04-25 02:07:00,37.9,34.9,30.18,WNW,292,3.2,5.8,89,0.00,OVC,,0.00,WeatherDisplay:10.37,2013-04-25 06:07:00,
2013-04-25 02:12:00,37.9,34.9,30.18,SSW,202,1.4,2.7,89,0.00,OVC,,0.00,WeatherDisplay:10.37,2013-04-25 06:12:00,
2013-04-25 02:17:00,37.8,35.1,30.19,NW,315,2.9,4.6,90,0.00,OVC,,0.00,WeatherDisplay:10.37,2013-04-25 06:17:00,
2013-04-25 02:22:00,37.6,35.2,30.19,West,270,0.5,3.5,91,0.00,OVC,,0.00,WeatherDisplay:10.37,2013-04-25 06:22:00,
2013-04-25 02:27:00,37.4,35.3,30.19,SW,225,3.5,5.8,92,0.00,OVC,,0.00,WeatherDisplay:10.37,2013-04-25 06:27:00,
2013-04-25 02:32:00,37.2,35.1,30.19,West,270,2.2,5.8,92,0.00,OVC,,0.00,WeatherDisplay:10.37,2013-04-25 06:32:00,
2013-04-25 02:37:00,37.0,35.2,30.19,WSW,248,0.1,2.3,93,0.00,OVC,,0.00,WeatherDisplay:10.37,2013-04-25 06:37:00,
2013-04-25 02:42:00,37.0,35.2,30.19,WSW,248,1.4,3.6,93,0.00,OVC,,0.00,WeatherDisplay:10.37,2013-04-25 06:42:00,
2013-04-25 02:47:00,37.0,35.4,30.19,SW,225,7.4,9.5,94,0.00,OVC,,0.00,WeatherDisplay:10.37,2013-04-25 06:47:00,
2013-04-25 02:52:00,37.0,35.4,30.19,WNW,292,1.6,5.8,94,0.00,OVC,,0.00,WeatherDisplay:10.37,2013-04-25 06:52:00,
2013-04-25 02:57:00,37.2,35.4,30.19,West,270,6.1,9.5,93,0.00,OVC,,0.00,WeatherDisplay:10.37,2013-04-25 06:57:00,
2013-04-25 03:02:00,36.9,35.1,30.19,NE,45,3.2,4.6,93,0.00,OVC,,0.00,WeatherDisplay:10.37,2013-04-25 07:02:00,
2013-04-25 03:07:00,36.9,34.5,30.19,WSW,248,4.3,5.8,91,0.00,OVC,,0.00,WeatherDisplay:10.37,2013-04-25 07:07:00,
2013-04-25 03:12:00,36.9,34.8,30.19,WNW,292,3.9,5.8,92,0.00,OVC,,0.00,WeatherDisplay:10.37,2013-04-25 07:12:00,
2013-04-25 03:17:00,37.0,34.6,30.19,East,90,2.5,3.5,91,0.00,OVC,,0.00,WeatherDisplay:10.37,2013-04-25 07:17:00,
2013-04-25 03:22:00,37.0,34.6,30.19,WNW,292,1.0,3.5,91,0.00,OVC,,0.00,WeatherDisplay:10.37,2013-04-25 07:22:00,
2013-04-25 03:27:00,37.0,34.6,30.20,WSW,248,2.0,2.7,91,0.00,OVC,,0.00,WeatherDisplay:10.37,2013-04-25 07:27:00,
2013-04-25 03:32:00,37.0,34.6,30.20,WSW,248,0.5,2.3,91,0.00,OVC,,0.00,WeatherDisplay:10.37,2013-04-25 07:32:00,
2013-04-25 03:37:00,37.0,34.6,30.20,SW,225,3.9,7.0,91,0.00,OVC,,0.00,WeatherDisplay:10.37,2013-04-25 07:37:00,
2013-04-25 03:42:00,37.0,34.6,30.20,WNW,292,0.3,3.5,91,0.00,OVC,,0.00,WeatherDisplay:10.37,2013-04-25 07:42:00,
2013-04-25 03:47:00,37.0,34.3,30.20,SW,225,2.7,4.6,90,0.00,OVC,,0.00,WeatherDisplay:10.37,2013-04-25 07:47:00,
2013-04-25 03:52:00,37.0,34.3,30.20,SW,225,3.7,4.4,90,0.00,OVC,,0.00,WeatherDisplay:10.37,2013-04-25 07:52:00,
2013-04-25 04:02:00,37.0,34.3,30.20,NW,315,3.8,4.6,90,0.00,OVC,,0.00,WeatherDisplay:10.37,2013-04-25 08:02:00,
2013-04-25 04:08:00,36.9,34.2,30.21,WNW,292,2.7,2.7,90,0.00,OVC,,0.00,WeatherDisplay:10.37,2013-04-25 08:08:00,
2013-04-25 04:13:00,36.9,34.2,30.21,WNW,292,0.0,0.0,90,0.00,OVC,,0.00,WeatherDisplay:10.37,2013-04-25 08:13:00,
2013-04-25 04:18:00,36.9,34.2,30.22,WNW,292,0.0,0.0,90,0.00,OVC,,0.00,WeatherDisplay:10.37,2013-04-25 08:18:00,
2013-04-25 04:23:00,36.7,34.0,30.22,WNW,292,0.0,0.0,90,0.00,OVC,,0.00,WeatherDisplay:10.37,2013-04-25 08:23:00,
2013-04-25 04:28:00,36.5,33.8,30.22,ESE,112,0.0,0.0,90,0.00,OVC,,0.00,WeatherDisplay:10.37,2013-04-25 08:28:00,
2013-04-25 04:33:00,36.3,33.9,30.22,SW,225,0.0,0.0,91,0.00,OVC,,0.00,WeatherDisplay:10.37,2013-04-25 08:33:00,
2013-04-25 04:38:00,36.5,34.1,30.22,SW,225,0.0,0.0,91,0.00,OVC,,0.00,WeatherDisplay:10.37,2013-04-25 08:38:00,
2013-04-25 04:43:00,36.7,34.0,30.22,SW,225,0.0,0.0,90,0.00,OVC,,0.00,WeatherDisplay:10.37,2013-04-25 08:43:00,
2013-04-25 04:48:00,36.7,34.0,30.22,South,180,2.0,3.6,90,0.00,OVC,,0.00,WeatherDisplay:10.37,2013-04-25 08:48:00,
2013-04-25 04:53:00,36.7,34.3,30.22,South,180,0.0,0.0,91,0.00,OVC,,0.00,WeatherDisplay:10.37,2013-04-25 08:53:00,
2013-04-25 04:58:00,36.7,34.6,30.22,South,180,0.0,0.0,92,0.00,OVC,,0.00,WeatherDisplay:10.37,2013-04-25 08:58:00,
2013-04-25 05:03:00,36.7,34.9,30.22,South,180,0.0,0.0,93,0.00,OVC,,0.00,WeatherDisplay:10.37,2013-04-25 09:03:00,
2013-04-25 05:08:00,36.3,34.5,30.22,South,180,0.0,2.3,93,0.00,OVC,,0.00,WeatherDisplay:10.37,2013-04-25 09:08:00,
2013-04-25 05:13:00,36.1,34.3,30.22,South,180,0.0,0.0,93,0.00,OVC,,0.00,WeatherDisplay:10.37,2013-04-25 09:13:00,
2013-04-25 05:18:00,35.8,34.0,30.22,South,180,0.0,0.0,93,0.00,OVC,,0.00,WeatherDisplay:10.37,2013-04-25 09:18:00,
2013-04-25 05:23:00,35.6,34.0,30.22,South,180,0.0,0.0,94,0.00,OVC,,0.00,WeatherDisplay:10.37,2013-04-25 09:23:00,
2013-04-25 05:28:00,35.2,33.4,30.22,South,180,0.0,0.0,93,0.00,OVC,,0.00,WeatherDisplay:10.37,2013-04-25 09:28:00,
2013-04-25 05:33:00,35.2,33.9,30.22,South,180,3.0,3.6,95,0.00,OVC,,0.00,WeatherDisplay:10.37,2013-04-25 09:33:00,
2013-04-25 05:38:00,35.2,33.9,30.22,South,180,0.0,0.0,95,0.00,OVC,,0.00,WeatherDisplay:10.37,2013-04-25 09:38:00,
2013-04-25 05:43:00,34.9,33.9,30.22,South,180,0.3,2.3,96,0.00,OVC,,0.00,WeatherDisplay:10.37,2013-04-25 09:43:00,
2013-04-25 05:48:00,34.3,33.3,30.22,South,180,0.0,0.0,96,0.00,OVC,,0.00,WeatherDisplay:10.37,2013-04-25 09:48:00,
2013-04-25 05:53:00,34.0,33.0,30.22,South,180,0.0,0.0,96,0.00,OVC,,0.00,WeatherDisplay:10.37,2013-04-25 09:53:00,
2013-04-25 05:58:00,33.6,32.6,30.22,South,180,0.0,0.0,96,0.00,OVC,,0.00,WeatherDisplay:10.37,2013-04-25 09:58:00,
2013-04-25 06:03:00,33.3,32.3,30.23,South,180,0.0,0.0,96,0.00,OVC,,0.00,WeatherDisplay:10.37,2013-04-25 10:03:00,
2013-04-25 06:08:00,33.1,32.1,30.23,South,180,0.0,0.0,96,0.00,OVC,,0.00,WeatherDisplay:10.37,2013-04-25 10:08:00,
2013-04-25 06:13:00,32.7,31.7,30.23,South,180,0.0,0.0,96,0.00,OVC,,0.00,WeatherDisplay:10.37,2013-04-25 10:13:00,
2013-04-25 06:18:00,32.2,31.2,30.23,South,180,0.0,0.0,96,0.00,OVC,,0.00,WeatherDisplay:10.37,2013-04-25 10:18:00,
2013-04-25 06:23:00,32.0,31.0,30.23,South,180,0.0,0.0,96,0.00,OVC,,0.00,WeatherDisplay:10.37,2013-04-25 10:23:00,
2013-04-25 06:28:00,31.8,31.0,30.23,South,180,0.0,0.0,97,0.00,OVC,,0.00,WeatherDisplay:10.37,2013-04-25 10:28:00,
2013-04-25 06:33:00,31.5,30.7,30.23,South,180,0.0,0.0,97,0.00,SCT,,0.00,WeatherDisplay:10.37,2013-04-25 10:33:00,
2013-04-25 06:38:00,31.5,31.0,30.24,South,180,0.0,0.0,98,0.00,SCT,,0.00,WeatherDisplay:10.37,2013-04-25 10:38:00,
2013-04-25 06:43:00,31.3,30.8,30.24,South,180,0.0,0.0,98,0.00,SCT,,0.00,WeatherDisplay:10.37,2013-04-25 10:43:00,
2013-04-25 06:48:00,31.3,30.8,30.24,South,180,0.0,0.0,98,0.00,SCT,,0.00,WeatherDisplay:10.37,2013-04-25 10:48:00,
2013-04-25 06:53:00,31.3,30.8,30.24,South,180,0.0,0.0,98,0.00,SCT,,0.00,WeatherDisplay:10.37,2013-04-25 10:53:00,
2013-04-25 06:58:00,31.3,30.8,30.24,South,180,0.0,0.0,98,0.00,SCT,,0.00,WeatherDisplay:10.37,2013-04-25 10:58:00,
2013-04-25 07:03:00,31.6,31.1,30.24,South,180,0.0,0.0,98,0.00,BKN,,0.00,WeatherDisplay:10.37,2013-04-25 11:03:00,
2013-04-25 07:08:00,31.6,31.1,30.24,South,180,0.0,0.0,98,0.00,BKN,,0.00,WeatherDisplay:10.37,2013-04-25 11:08:00,
2013-04-25 07:13:00,31.6,31.1,30.24,South,180,0.0,0.0,98,0.00,BKN,,0.00,WeatherDisplay:10.37,2013-04-25 11:13:00,
2013-04-25 07:18:00,31.6,31.4,30.24,South,180,0.0,0.0,99,0.00,BKN,,0.00,WeatherDisplay:10.37,2013-04-25 11:18:00,
2013-04-25 07:23:00,32.5,32.3,30.24,South,180,0.0,0.0,99,0.00,BKN,,0.00,WeatherDisplay:10.37,2013-04-25 11:23:00,
2013-04-25 07:28:00,33.8,33.8,30.25,South,180,0.0,0.0,100,0.00,BKN,,0.00,WeatherDisplay:10.37,2013-04-25 11:28:00,
2013-04-25 07:33:00,34.3,34.0,30.25,South,180,1.7,2.7,99,0.00,BKN,,0.00,WeatherDisplay:10.37,2013-04-25 11:33:00,
2013-04-25 07:38:00,35.1,34.6,30.25,South,180,0.0,0.0,98,0.00,BKN,,0.00,WeatherDisplay:10.37,2013-04-25 11:38:00,
2013-04-25 07:43:00,36.3,35.0,30.25,South,180,1.1,4.6,95,0.00,BKN,,0.00,WeatherDisplay:10.37,2013-04-25 11:43:00,
2013-04-25 07:48:00,36.7,34.6,30.25,WSW,248,2.0,5.8,92,0.00,BKN,,0.00,WeatherDisplay:10.37,2013-04-25 11:48:00,
2013-04-25 07:53:00,37.9,35.2,30.25,SW,225,4.8,6.1,90,0.00,BKN,,0.00,WeatherDisplay:10.37,2013-04-25 11:53:00,
2013-04-25 07:58:00,38.5,35.0,30.25,SW,225,3.9,5.8,87,0.00,BKN,,0.00,WeatherDisplay:10.37,2013-04-25 11:58:00,
2013-04-25 08:03:00,38.7,35.2,30.25,South,180,3.6,3.6,87,0.00,SCT,,0.00,WeatherDisplay:10.37,2013-04-25 12:03:00,
2013-04-25 08:08:00,39.7,35.3,30.25,South,180,3.1,5.8,84,0.00,SCT,,0.00,WeatherDisplay:10.37,2013-04-25 12:08:00,
2013-04-25 08:13:00,40.5,35.7,30.25,SW,225,4.1,5.8,83,0.00,SCT,,0.00,WeatherDisplay:10.37,2013-04-25 12:13:00,
2013-04-25 08:18:00,41.0,35.9,30.26,NW,315,4.9,6.9,82,0.00,SCT,,0.00,WeatherDisplay:10.37,2013-04-25 12:18:00,
2013-04-25 08:23:00,41.2,35.5,30.26,WSW,248,4.0,5.8,80,0.00,SCT,,0.00,WeatherDisplay:10.37,2013-04-25 12:23:00,
2013-04-25 08:28:00,41.9,35.5,30.26,SSE,158,7.2,9.2,78,0.00,SCT,,0.00,WeatherDisplay:10.37,2013-04-25 12:28:00,
2013-04-25 08:33:00,42.1,35.4,30.26,South,180,4.3,9.2,77,0.00,SCT,,0.00,WeatherDisplay:10.37,2013-04-25 12:33:00,
2013-04-25 08:38:00,42.4,35.7,30.26,SSE,158,5.4,6.1,77,0.00,SCT,,0.00,WeatherDisplay:10.37,2013-04-25 12:38:00,
2013-04-25 08:43:00,43.5,35.4,30.26,WNW,292,5.2,10.4,73,0.00,SCT,,0.00,WeatherDisplay:10.37,2013-04-25 12:43:00,
2013-04-25 08:48:00,43.7,36.0,30.26,SW,225,4.0,6.1,74,0.00,SCT,,0.00,WeatherDisplay:10.37,2013-04-25 12:48:00,
2013-04-25 08:53:00,45.0,35.4,30.26,West,270,5.3,6.1,69,0.00,SCT,,0.00,WeatherDisplay:10.37,2013-04-25 12:53:00,
2013-04-25 08:58:00,43.9,34.4,30.26,SSW,202,3.6,5.8,69,0.00,SCT,,0.00,WeatherDisplay:10.37,2013-04-25 12:58:00,
2013-04-25 09:03:00,44.2,34.3,30.27,ESE,112,6.9,9.5,68,0.00,SCT,,0.00,WeatherDisplay:10.37,2013-04-25 13:03:00,
2013-04-25 09:08:00,43.9,33.6,30.27,WSW,248,5.3,7.0,67,0.00,SCT,,0.00,WeatherDisplay:10.37,2013-04-25 13:08:00,
2013-04-25 09:13:00,42.3,33.9,30.27,SSW,202,2.4,5.8,72,0.00,SCT,,0.00,WeatherDisplay:10.37,2013-04-25 13:13:00,
2013-04-25 09:18:00,42.8,33.3,30.26,WNW,292,3.4,7.8,69,0.00,BKN,,0.00,WeatherDisplay:10.37,2013-04-25 13:18:00,
2013-04-25 09:23:00,43.3,32.3,30.26,WSW,248,5.4,7.8,65,0.00,BKN,,0.00,WeatherDisplay:10.37,2013-04-25 13:23:00,
2013-04-25 09:28:00,40.8,31.4,30.27,WSW,248,7.1,12.1,69,0.00,BKN,,0.00,WeatherDisplay:10.37,2013-04-25 13:28:00,
2013-04-25 09:33:00,42.3,32.8,30.27,West,270,7.2,9.5,69,0.00,BKN,,0.00,WeatherDisplay:10.37,2013-04-25 13:33:00,
2013-04-25 09:38:00,41.4,31.6,30.27,WNW,292,1.6,8.1,68,0.00,BKN,,0.00,WeatherDisplay:10.37,2013-04-25 13:38:00,
2013-04-25 09:43:00,44.4,32.6,30.27,SSE,158,5.4,6.9,63,0.00,BKN,,0.00,WeatherDisplay:10.37,2013-04-25 13:43:00,
2013-04-25 09:48:00,44.8,32.2,30.27,West,270,3.2,5.8,61,0.00,BKN,,0.00,WeatherDisplay:10.37,2013-04-25 13:48:00,
2013-04-25 09:53:00,44.6,31.6,30.27,South,180,6.2,9.5,60,0.00,BKN,,0.00,WeatherDisplay:10.37,2013-04-25 13:53:00,
2013-04-25 09:58:00,44.6,31.1,30.27,SW,225,4.6,5.8,59,0.00,BKN,,0.00,WeatherDisplay:10.37,2013-04-25 13:58:00,
2013-04-25 10:03:00,45.1,31.2,30.27,NW,315,8.5,12.9,58,0.00,BKN,,0.00,WeatherDisplay:10.37,2013-04-25 14:03:00,
2013-04-25 10:08:00,43.9,28.8,30.27,West,270,2.7,9.2,55,0.00,BKN,,0.00,WeatherDisplay:10.37,2013-04-25 14:08:00,
2013-04-25 10:13:00,44.6,30.7,30.27,West,270,8.9,12.9,58,0.00,BKN,,0.00,WeatherDisplay:10.37,2013-04-25 14:13:00,
2013-04-25 10:18:00,43.7,29.5,30.27,NW,315,5.4,8.1,57,0.00,BKN,,0.00,WeatherDisplay:10.37,2013-04-25 14:18:00,
2013-04-25 10:23:00,45.0,30.2,30.27,SE,135,6.9,8.1,56,0.00,BKN,,0.00,WeatherDisplay:10.37,2013-04-25 14:23:00,
2013-04-25 10:28:00,45.0,30.7,30.27,SE,135,4.7,6.1,57,0.00,BKN,,0.00,WeatherDisplay:10.37,2013-04-25 14:28:00,
2013-04-25 10:33:00,46.9,31.6,30.27,SW,225,4.2,5.8,55,0.00,BKN,,0.00,WeatherDisplay:10.37,2013-04-25 14:33:00,
2013-04-25 10:38:00,45.7,30.4,30.27,West,270,7.7,11.5,55,0.00,BKN,,0.00,WeatherDisplay:10.37,2013-04-25 14:38:00,
2013-04-25 10:43:00,44.4,30.1,30.27,SSW,202,8.2,10.4,57,0.00,BKN,,0.00,WeatherDisplay:10.37,2013-04-25 14:43:00,
2013-04-25 10:48:00,46.6,30.4,30.27,NNE,22,7.0,10.4,53,0.00,BKN,,0.00,WeatherDisplay:10.37,2013-04-25 14:48:00,
2013-04-25 10:53:00,45.5,29.3,30.27,WNW,292,5.8,9.2,53,0.00,BKN,,0.00,WeatherDisplay:10.37,2013-04-25 14:53:00,
2013-04-25 10:58:00,47.1,30.8,30.27,SW,225,5.1,7.0,53,0.00,BKN,,0.00,WeatherDisplay:10.37,2013-04-25 14:58:00,
2013-04-25 11:03:00,47.5,31.2,30.27,South,180,5.0,5.8,53,0.00,SCT,,0.00,WeatherDisplay:10.37,2013-04-25 15:03:00,
2013-04-25 11:08:00,47.7,30.4,30.27,ENE,68,3.8,4.6,51,0.00,SCT,,0.00,WeatherDisplay:10.37,2013-04-25 15:08:00,
2013-04-25 11:13:00,48.6,30.3,30.27,SSE,158,9.5,12.9,49,0.00,SCT,,0.00,WeatherDisplay:10.37,2013-04-25 15:13:00,
2013-04-25 11:18:00,48.2,30.4,30.26,SSW,202,6.7,9.2,50,0.00,SCT,,0.00,WeatherDisplay:10.37,2013-04-25 15:18:00,
2013-04-25 11:23:00,48.6,31.3,30.26,SSW,202,6.5,9.2,51,0.00,SCT,,0.00,WeatherDisplay:10.37,2013-04-25 15:23:00,
2013-04-25 11:28:00,49.1,32.2,30.27,SSW,202,5.5,10.4,52,0.00,SCT,,0.00,WeatherDisplay:10.37,2013-04-25 15:28:00,
2013-04-25 11:33:00,48.4,31.6,30.27,WSW,248,11.3,13.8,52,0.00,SCT,,0.00,WeatherDisplay:10.37,2013-04-25 15:33:00,
2013-04-25 11:38:00,48.9,30.1,30.26,South,180,7.1,9.5,48,0.00,SCT,,0.00,WeatherDisplay:10.37,2013-04-25 15:38:00,
2013-04-25 11:43:00,48.4,31.1,30.26,SSE,158,5.6,9.2,51,0.00,SCT,,0.00,WeatherDisplay:10.37,2013-04-25 15:43:00,
2013-04-25 11:48:00,49.1,32.2,30.26,SSE,158,3.4,9.2,52,0.00,SCT,,0.00,WeatherDisplay:10.37,2013-04-25 15:48:00,
2013-04-25 11:53:00,48.6,31.8,30.26,SW,225,3.8,9.2,52,0.00,SCT,,0.00,WeatherDisplay:10.37,2013-04-25 15:53:00,
2013-04-25 11:58:00,49.3,31.4,30.26,WSW,248,8.0,11.2,50,0.00,SCT,,0.00,WeatherDisplay:10.37,2013-04-25 15:58:00,
2013-04-25 12:03:00,49.3,30.4,30.27,SW,225,3.8,9.2,48,0.00,SCT,,0.00,WeatherDisplay:10.37,2013-04-25 16:03:00,
2013-04-25 12:08:00,50.7,31.7,30.27,SSE,158,6.2,9.2,48,0.00,SCT,,0.00,WeatherDisplay:10.37,2013-04-25 16:08:00,
2013-04-25 12:13:00,50.4,31.4,30.27,South,180,5.3,10.4,48,0.00,SCT,,0.00,WeatherDisplay:10.37,2013-04-25 16:13:00,
2013-04-25 12:18:00,49.6,30.2,30.27,WNW,292,10.1,12.9,47,0.00,SCT,,0.00,WeatherDisplay:10.37,2013-04-25 16:18:00,
2013-04-25 12:23:00,49.5,30.1,30.27,WNW,292,8.4,11.5,47,0.00,SCT,,0.00,WeatherDisplay:10.37,2013-04-25 16:23:00,
2013-04-25 12:28:00,49.3,28.8,30.26,West,270,5.5,11.5,45,0.00,SCT,,0.00,WeatherDisplay:10.37,2013-04-25 16:28:00,
2013-04-25 12:33:00,51.4,31.3,30.26,South,180,5.8,9.2,46,0.00,SCT,,0.00,WeatherDisplay:10.37,2013-04-25 16:33:00,
2013-04-25 12:38:00,51.8,31.7,30.26,WNW,292,7.2,11.5,46,0.00,SCT,,0.00,WeatherDisplay:10.37,2013-04-25 16:38:00,
2013-04-25 12:43:00,51.4,30.7,30.26,SW,225,11.2,15.4,45,0.00,SCT,,0.00,WeatherDisplay:10.37,2013-04-25 16:43:00,
2013-04-25 12:48:00,52.0,31.3,30.26,SE,135,7.2,11.5,45,0.00,SCT,,0.00,WeatherDisplay:10.37,2013-04-25 16:48:00,
2013-04-25 12:53:00,53.1,32.8,30.26,ESE,112,6.1,9.2,46,0.00,SCT,,0.00,WeatherDisplay:10.37,2013-04-25 16:53:00,
2013-04-25 12:58:00,51.6,30.9,30.26,West,270,8.0,11.5,45,0.00,SCT,,0.00,WeatherDisplay:10.37,2013-04-25 16:58:00,
2013-04-25 13:03:00,51.6,31.5,30.25,West,270,6.6,11.5,46,0.00,FEW,,0.00,WeatherDisplay:10.37,2013-04-25 17:03:00,
2013-04-25 13:08:00,51.6,29.2,30.25,SW,225,11.7,13.8,42,0.00,FEW,,0.00,WeatherDisplay:10.37,2013-04-25 17:08:00,
2013-04-25 13:13:00,52.5,32.8,30.25,WSW,248,7.9,11.5,47,0.00,FEW,,0.00,WeatherDisplay:10.37,2013-04-25 17:13:00,
2013-04-25 13:18:00,52.5,33.4,30.25,SW,225,6.1,15.0,48,0.00,FEW,,0.00,WeatherDisplay:10.37,2013-04-25 17:18:00,
2013-04-25 13:23:00,52.7,30.2,30.25,East,90,3.7,8.1,42,0.00,FEW,,0.00,WeatherDisplay:10.37,2013-04-25 17:23:00,
2013-04-25 13:28:00,54.0,32.0,30.24,WSW,248,7.1,9.5,43,0.00,FEW,,0.00,WeatherDisplay:10.37,2013-04-25 17:28:00,
2013-04-25 13:33:00,52.9,30.4,30.24,WNW,292,6.5,9.2,42,0.00,FEW,,0.00,WeatherDisplay:10.37,2013-04-25 17:33:00,
2013-04-25 13:38:00,52.3,29.9,30.24,ENE,68,3.4,6.9,42,0.00,FEW,,0.00,WeatherDisplay:10.37,2013-04-25 17:38:00,
2013-04-25 13:43:00,54.3,31.1,30.24,South,180,7.8,9.2,41,0.00,FEW,,0.00,WeatherDisplay:10.37,2013-04-25 17:43:00,
2013-04-25 13:48:00,54.0,32.0,30.24,SW,225,4.5,10.4,43,0.00,FEW,,0.00,WeatherDisplay:10.37,2013-04-25 17:48:00,
2013-04-25 13:53:00,54.0,32.0,30.24,SSE,158,9.5,9.5,43,0.00,FEW,,0.00,WeatherDisplay:10.37,2013-04-25 17:53:00,
2013-04-25 13:58:00,55.0,31.7,30.24,SW,225,6.4,9.2,41,0.00,FEW,,0.00,WeatherDisplay:10.37,2013-04-25 17:58:00,
2013-04-25 14:03:00,54.7,30.8,30.23,South,180,8.8,10.4,40,0.00,SKC,,0.00,WeatherDisplay:10.37,2013-04-25 18:03:00,
2013-04-25 14:08:00,54.9,31.0,30.23,WSW,248,4.8,11.5,40,0.00,SKC,,0.00,WeatherDisplay:10.37,2013-04-25 18:08:00,
2013-04-25 14:13:00,55.6,31.0,30.23,SSE,158,6.2,9.2,39,0.00,SKC,,0.00,WeatherDisplay:10.37,2013-04-25 18:13:00,
2013-04-25 14:18:00,54.0,31.4,30.23,South,180,6.9,11.2,42,0.00,SKC,,0.00,WeatherDisplay:10.37,2013-04-25 18:18:00,
2013-04-25 14:23:00,55.6,32.2,30.23,South,180,7.1,7.8,41,0.00,SKC,,0.00,WeatherDisplay:10.37,2013-04-25 18:23:00,
2013-04-25 14:28:00,56.5,33.1,30.22,WSW,248,5.6,9.2,41,0.00,SKC,,0.00,WeatherDisplay:10.37,2013-04-25 18:28:00,
2013-04-25 14:33:00,55.9,30.6,30.22,SE,135,7.5,9.2,38,0.00,SKC,,0.00,WeatherDisplay:10.37,2013-04-25 18:33:00,
2013-04-25 14:38:00,56.8,30.8,30.22,SSE,158,8.6,12.1,37,0.00,SKC,,0.00,WeatherDisplay:10.37,2013-04-25 18:38:00,
2013-04-25 14:43:00,56.3,31.6,30.22,SSW,202,9.5,12.9,39,0.00,SKC,,0.00,WeatherDisplay:10.37,2013-04-25 18:43:00,
2013-04-25 14:48:00,56.5,30.5,30.22,SW,225,8.6,12.1,37,0.00,SKC,,0.00,WeatherDisplay:10.37,2013-04-25 18:48:00,
2013-04-25 14:53:00,56.7,31.4,30.22,West,270,8.9,11.5,38,0.00,SKC,,0.00,WeatherDisplay:10.37,2013-04-25 18:53:00,
2013-04-25 14:58:00,56.7,30.7,30.22,West,270,11.4,12.9,37,0.00,SKC,,0.00,WeatherDisplay:10.37,2013-04-25 18:58:00,
2013-04-25 15:03:00,57.2,30.5,30.21,SSE,158,9.9,12.1,36,0.00,SKC,,0.00,WeatherDisplay:10.37,2013-04-25 19:03:00,
2013-04-25 15:08:00,56.8,30.8,30.21,South,180,9.4,16.1,37,0.00,SKC,,0.00,WeatherDisplay:10.37,2013-04-25 19:08:00,
2013-04-25 15:13:00,57.0,31.6,30.20,SW,225,7.9,9.2,38,0.00,SKC,,0.00,WeatherDisplay:10.37,2013-04-25 19:13:00,
2013-04-25 15:18:00,57.7,31.6,30.20,West,270,8.0,9.5,37,0.00,SKC,,0.00,WeatherDisplay:10.37,2013-04-25 19:18:00,
2013-04-25 15:23:00,58.5,33.0,30.20,South,180,5.8,8.1,38,0.00,SKC,,0.00,WeatherDisplay:10.37,2013-04-25 19:23:00,
2013-04-25 15:28:00,57.6,31.5,30.20,West,270,7.1,13.8,37,0.00,SKC,,0.00,WeatherDisplay:10.37,2013-04-25 19:28:00,
2013-04-25 15:33:00,58.1,31.3,30.20,SW,225,7.2,9.2,36,0.00,SKC,,0.00,WeatherDisplay:10.37,2013-04-25 19:33:00,
2013-04-25 15:38:00,57.9,31.1,30.20,SSW,202,8.3,9.5,36,0.00,SKC,,0.00,WeatherDisplay:10.37,2013-04-25 19:38:00,
2013-04-25 15:43:00,58.1,32.6,30.20,West,270,10.3,16.1,38,0.00,SKC,,0.00,WeatherDisplay:10.37,2013-04-25 19:43:00,
2013-04-25 15:48:00,57.6,32.2,30.20,West,270,7.8,11.5,38,0.00,SKC,,0.00,WeatherDisplay:10.37,2013-04-25 19:48:00,
2013-04-25 15:53:00,57.9,31.1,30.20,SW,225,6.9,9.2,36,0.00,SKC,,0.00,WeatherDisplay:10.37,2013-04-25 19:53:00,
2013-04-25 15:58:00,57.6,31.5,30.20,WSW,248,9.3,11.5,37,0.00,SKC,,0.00,WeatherDisplay:10.37,2013-04-25 19:58:00,
2013-04-25 16:03:00,57.6,31.5,30.19,WSW,248,7.2,9.2,37,0.00,SKC,,0.00,WeatherDisplay:10.37,2013-04-25 20:03:00,
2013-04-25 16:08:00,57.9,31.1,30.19,SW,225,5.3,11.5,36,0.00,SKC,,0.00,WeatherDisplay:10.37,2013-04-25 20:08:00,
2013-04-25 16:13:00,58.1,30.6,30.19,ESE,112,10.1,13.8,35,0.00,SKC,,0.00,WeatherDisplay:10.37,2013-04-25 20:13:00,
2013-04-25 16:18:00,58.3,31.4,30.18,WSW,248,6.5,11.5,36,0.00,SKC,,0.00,WeatherDisplay:10.37,2013-04-25 20:18:00,
2013-04-25 16:23:00,58.8,31.9,30.18,SSW,202,7.1,9.2,36,0.00,SKC,,0.00,WeatherDisplay:10.37,2013-04-25 20:23:00,
2013-04-25 16:28:00,59.4,31.7,30.18,SE,135,5.1,5.8,35,0.00,SKC,,0.00,WeatherDisplay:10.37,2013-04-25 20:28:00,
2013-04-25 16:33:00,59.0,30.6,30.18,South,180,4.6,8.1,34,0.00,SKC,,0.00,WeatherDisplay:10.37,2013-04-25 20:33:00,
2013-04-25 16:38:00,60.1,33.0,30.18,West,270,7.9,11.2,36,0.00,SKC,,0.00,WeatherDisplay:10.37,2013-04-25 20:38:00,
2013-04-25 16:43:00,59.7,31.3,30.18,SW,225,8.7,10.4,34,0.00,SKC,,0.00,WeatherDisplay:10.37,2013-04-25 20:43:00,
2013-04-25 16:48:00,59.4,29.5,30.18,WSW,248,13.6,20.5,32,0.00,SKC,,0.00,WeatherDisplay:10.37,2013-04-25 20:48:00,
2013-04-25 16:53:00,58.6,28.0,30.18,SSW,202,11.8,12.9,31,0.00,SKC,,0.00,WeatherDisplay:10.37,2013-04-25 20:53:00,
2013-04-25 16:58:00,58.5,27.1,30.18,West,270,10.0,12.9,30,0.00,SKC,,0.00,WeatherDisplay:10.37,2013-04-25 20:58:00,
2013-04-25 17:03:00,59.2,30.1,30.17,West,270,4.8,9.2,33,0.00,FEW,,0.00,WeatherDisplay:10.37,2013-04-25 21:03:00,
2013-04-25 17:08:00,59.2,28.5,30.17,WNW,292,7.3,12.9,31,0.00,FEW,,0.00,WeatherDisplay:10.37,2013-04-25 21:08:00,
2013-04-25 17:13:00,59.2,28.5,30.17,WNW,292,14.2,20.5,31,0.00,FEW,,0.00,WeatherDisplay:10.37,2013-04-25 21:13:00,
2013-04-25 17:18:00,58.6,28.0,30.18,SW,225,10.4,10.4,31,0.00,FEW,,0.00,WeatherDisplay:10.37,2013-04-25 21:18:00,
2013-04-25 17:23:00,58.3,29.3,30.18,SW,225,7.3,10.4,33,0.00,FEW,,0.00,WeatherDisplay:10.37,2013-04-25 21:23:00,
2013-04-25 17:28:00,59.7,29.8,30.18,WNW,292,6.3,11.5,32,0.00,FEW,,0.00,WeatherDisplay:10.37,2013-04-25 21:28:00,
2013-04-25 17:33:00,59.4,28.7,30.18,WNW,292,3.8,12.7,31,0.00,FEW,,0.00,WeatherDisplay:10.37,2013-04-25 21:33:00,
2013-04-25 17:38:00,58.6,28.8,30.18,SSW,202,6.2,15.0,32,0.00,FEW,,0.00,WeatherDisplay:10.37,2013-04-25 21:38:00,
2013-04-25 17:43:00,59.0,29.2,30.18,SW,225,7.3,10.4,32,0.00,FEW,,0.00,WeatherDisplay:10.37,2013-04-25 21:43:00,
2013-04-25 17:48:00,58.1,29.1,30.18,SSW,202,9.8,11.5,33,0.00,FEW,,0.00,WeatherDisplay:10.37,2013-04-25 21:48:00,
2013-04-25 17:53:00,57.9,29.7,30.19,West,270,5.7,15.0,34,0.00,FEW,,0.00,WeatherDisplay:10.37,2013-04-25 21:53:00,
2013-04-25 17:58:00,57.2,29.8,30.19,WNW,292,8.1,13.8,35,0.00,FEW,,0.00,WeatherDisplay:10.37,2013-04-25 21:58:00,
2013-04-25 18:03:00,57.6,30.1,30.20,NNW,338,7.7,10.4,35,0.00,BKN,,0.00,WeatherDisplay:10.37,2013-04-25 22:03:00,
2013-04-25 18:08:00,57.2,29.1,30.20,SW,225,4.9,9.2,34,0.00,BKN,,0.00,WeatherDisplay:10.37,2013-04-25 22:08:00,
2013-04-25 18:13:00,56.8,29.4,30.20,NW,315,10.4,12.1,35,0.00,BKN,,0.00,WeatherDisplay:10.37,2013-04-25 22:13:00,
2013-04-25 18:18:00,57.2,29.8,30.20,WSW,248,4.6,7.0,35,0.00,BKN,,0.00,WeatherDisplay:10.37,2013-04-25 22:18:00,
2013-04-25 18:23:00,57.7,29.5,30.20,SW,225,4.7,7.0,34,0.00,BKN,,0.00,WeatherDisplay:10.37,2013-04-25 22:23:00,
2013-04-25 18:28:00,57.4,30.6,30.20,West,270,5.0,11.5,36,0.00,BKN,,0.00,WeatherDisplay:10.37,2013-04-25 22:28:00,
2013-04-25 18:33:00,56.7,29.3,30.20,SSW,202,13.8,18.4,35,0.00,BKN,,0.00,WeatherDisplay:10.37,2013-04-25 22:33:00,
2013-04-25 18:38:00,56.8,30.1,30.20,NW,315,6.7,10.4,36,0.00,BKN,,0.00,WeatherDisplay:10.37,2013-04-25 22:38:00,
2013-04-25 18:43:00,56.8,30.8,30.21,West,270,9.0,12.1,37,0.00,BKN,,0.00,WeatherDisplay:10.37,2013-04-25 22:43:00,
2013-04-25 18:48:00,56.3,31.0,30.21,WSW,248,6.2,15.0,38,0.00,BKN,,0.00,WeatherDisplay:10.37,2013-04-25 22:48:00,
2013-04-25 18:53:00,55.9,30.6,30.21,North,360,7.9,15.0,38,0.00,BKN,,0.00,WeatherDisplay:10.37,2013-04-25 22:53:00,
2013-04-25 18:58:00,55.4,30.2,30.21,West,270,10.8,14.6,38,0.00,BKN,,0.00,WeatherDisplay:10.37,2013-04-25 22:58:00,
2013-04-25 19:03:00,55.6,30.4,30.21,NNW,338,12.2,16.3,38,0.00,BKN,,0.00,WeatherDisplay:10.37,2013-04-25 23:03:00,
2013-04-25 19:08:00,55.4,30.2,30.21,SW,225,8.1,11.5,38,0.00,BKN,,0.00,WeatherDisplay:10.37,2013-04-25 23:08:00,
2013-04-25 19:13:00,55.0,30.5,30.21,WSW,248,8.3,10.4,39,0.00,BKN,,0.00,WeatherDisplay:10.37,2013-04-25 23:13:00,
2013-04-25 19:18:00,54.9,30.4,30.22,NW,315,6.0,11.5,39,0.00,BKN,,0.00,WeatherDisplay:10.37,2013-04-25 23:18:00,
2013-04-25 19:23:00,55.0,31.1,30.22,West,270,5.9,10.4,40,0.00,BKN,,0.00,WeatherDisplay:10.37,2013-04-25 23:23:00,
2013-04-25 19:28:00,54.9,31.0,30.22,SW,225,4.4,9.2,40,0.00,BKN,,0.00,WeatherDisplay:10.37,2013-04-25 23:28:00,
2013-04-25 19:33:00,54.5,30.0,30.22,WSW,248,9.3,13.8,39,0.00,BKN,,0.00,WeatherDisplay:10.37,2013-04-25 23:33:00,
2013-04-25 19:38:00,54.5,30.0,30.22,NW,315,7.6,8.1,39,0.00,BKN,,0.00,WeatherDisplay:10.37,2013-04-25 23:38:00,
2013-04-25 19:43:00,54.5,30.0,30.22,WSW,248,3.7,5.3,39,0.00,BKN,,0.00,WeatherDisplay:10.37,2013-04-25 23:43:00,
2013-04-25 19:48:00,54.5,30.0,30.22,WSW,248,5.3,5.8,39,0.00,BKN,,0.00,WeatherDisplay:10.37,2013-04-25 23:48:00,
2013-04-25 19:53:00,54.5,30.0,30.23,WSW,248,5.3,5.8,39,0.00,BKN,,0.00,WeatherDisplay:10.37,2013-04-25 23:53:00,
2013-04-25 19:58:00,54.5,30.0,30.23,WSW,248,5.3,5.8,39,0.00,BKN,,0.00,WeatherDisplay:10.37,2013-04-25 23:58:00,
2013-04-25 20:03:00,54.5,30.0,30.23,WSW,248,5.3,5.8,39,0.00,BKN,,0.00,WeatherDisplay:10.37,2013-04-26 00:03:00,
2013-04-25 20:08:00,54.5,30.0,30.23,WSW,248,5.3,5.8,39,0.00,BKN,,0.00,WeatherDisplay:10.37,2013-04-26 00:08:00,
2013-04-25 20:13:00,52.5,30.6,30.23,NW,315,4.2,5.8,43,0.00,BKN,,0.00,WeatherDisplay:10.37,2013-04-26 00:13:00,
2013-04-25 20:18:00,52.5,31.2,30.24,WNW,292,8.0,10.4,44,0.00,BKN,,0.00,WeatherDisplay:10.37,2013-04-26 00:18:00,
2013-04-25 20:23:00,52.3,31.6,30.24,SW,225,4.3,7.8,45,0.00,BKN,,0.00,WeatherDisplay:10.37,2013-04-26 00:23:00,
2013-04-25 20:28:00,51.8,31.1,30.24,SW,225,3.0,6.9,45,0.00,BKN,,0.00,WeatherDisplay:10.37,2013-04-26 00:28:00,
2013-04-25 20:33:00,51.4,31.8,30.24,NW,315,0.5,4.6,47,0.00,BKN,,0.00,WeatherDisplay:10.37,2013-04-26 00:33:00,
2013-04-25 20:38:00,51.3,31.7,30.24,WNW,292,4.4,4.6,47,0.00,BKN,,0.00,WeatherDisplay:10.37,2013-04-26 00:38:00,
2013-04-25 20:43:00,51.3,31.7,30.24,WNW,292,4.4,4.6,47,0.00,BKN,,0.00,WeatherDisplay:10.37,2013-04-26 00:43:00,
2013-04-25 20:48:00,51.3,31.7,30.24,WNW,292,4.4,4.6,47,0.00,BKN,,0.00,WeatherDisplay:10.37,2013-04-26 00:48:00,
2013-04-25 20:53:00,51.3,31.7,30.26,West,270,3.6,4.6,47,0.00,BKN,,0.00,WeatherDisplay:10.37,2013-04-26 00:53:00,
2013-04-25 20:58:00,49.8,31.9,30.26,West,270,1.1,2.7,50,0.00,BKN,,0.00,WeatherDisplay:10.37,2013-04-26 00:58:00,
2013-04-25 21:03:00,49.6,32.2,30.26,WSW,248,0.0,5.8,51,0.00,SCT,,0.00,WeatherDisplay:10.37,2013-04-26 01:03:00,
2013-04-25 21:08:00,49.6,32.2,30.26,WSW,248,0.0,0.0,51,0.00,SCT,,0.00,WeatherDisplay:10.37,2013-04-26 01:08:00,
2013-04-25 21:13:00,49.5,34.0,30.26,WSW,248,0.0,0.0,55,0.00,SCT,,0.00,WeatherDisplay:10.37,2013-04-26 01:13:00,
2013-04-25 21:18:00,49.3,33.3,30.27,WSW,248,0.0,0.0,54,0.00,SCT,,0.00,WeatherDisplay:10.37,2013-04-26 01:18:00,
2013-04-25 21:23:00,49.3,33.3,30.27,WSW,248,0.0,0.0,54,0.00,SCT,,0.00,WeatherDisplay:10.37,2013-04-26 01:23:00,
2013-04-25 21:28:00,49.3,33.3,30.27,WSW,248,0.0,0.0,54,0.00,SCT,,0.00,WeatherDisplay:10.37,2013-04-26 01:28:00,
2013-04-25 21:33:00,49.3,33.3,30.27,WSW,248,0.0,0.0,54,0.00,SCT,,0.00,WeatherDisplay:10.37,2013-04-26 01:33:00,
2013-04-25 21:38:00,49.3,33.3,30.28,WSW,248,0.0,0.0,54,0.00,SCT,,0.00,WeatherDisplay:10.37,2013-04-26 01:38:00,
2013-04-25 21:43:00,48.6,34.0,30.28,WSW,248,0.0,0.0,57,0.00,SCT,,0.00,WeatherDisplay:10.37,2013-04-26 01:43:00,
2013-04-25 21:48:00,48.6,34.5,30.28,WSW,248,0.0,0.0,58,0.00,SCT,,0.00,WeatherDisplay:10.37,2013-04-26 01:48:00,
2013-04-25 21:53:00,48.6,34.5,30.28,WSW,248,0.0,0.0,58,0.00,SCT,,0.00,WeatherDisplay:10.37,2013-04-26 01:53:00,
2013-04-25 21:58:00,48.6,34.5,30.28,WSW,248,0.0,0.0,58,0.00,SCT,,0.00,WeatherDisplay:10.37,2013-04-26 01:58:00,
2013-04-25 22:03:00,48.6,34.5,30.29,WSW,248,0.0,0.0,58,0.00,BKN,,0.00,WeatherDisplay:10.37,2013-04-26 02:03:00,
2013-04-25 22:08:00,48.6,34.5,30.29,WSW,248,0.0,0.0,58,0.00,BKN,,0.00,WeatherDisplay:10.37,2013-04-26 02:08:00,
2013-04-25 22:13:00,48.6,34.5,30.29,WSW,248,0.0,0.0,58,0.00,BKN,,0.00,WeatherDisplay:10.37,2013-04-26 02:13:00,
2013-04-25 22:18:00,48.6,34.5,30.30,WSW,248,0.0,0.0,58,0.00,BKN,,0.00,WeatherDisplay:10.37,2013-04-26 02:18:00,
2013-04-25 22:23:00,48.6,34.5,30.30,WSW,248,0.0,0.0,58,0.00,BKN,,0.00,WeatherDisplay:10.37,2013-04-26 02:23:00,
2013-04-25 22:29:00,48.6,34.5,30.30,WSW,248,0.0,0.0,58,0.00,BKN,,0.00,WeatherDisplay:10.37,2013-04-26 02:29:00,
2013-04-25 22:34:00,48.6,34.5,30.30,WSW,248,0.0,0.0,58,0.00,BKN,,0.00,WeatherDisplay:10.37,2013-04-26 02:34:00,
2013-04-25 22:39:00,48.6,34.5,30.30,WSW,248,0.0,0.0,58,0.00,BKN,,0.00,WeatherDisplay:10.37,2013-04-26 02:39:00,
2013-04-25 22:44:00,49.3,36.0,30.30,WNW,292,7.8,8.1,60,0.00,BKN,,0.00,WeatherDisplay:10.37,2013-04-26 02:44:00,
2013-04-25 22:49:00,48.4,36.8,30.30,NE,45,9.2,10.4,64,0.00,BKN,,0.00,WeatherDisplay:10.37,2013-04-26 02:49:00,
2013-04-25 22:54:00,47.8,37.0,30.32,NE,45,8.9,11.5,66,0.00,BKN,,0.00,WeatherDisplay:10.37,2013-04-26 02:54:00,
2013-04-25 22:59:00,47.5,37.1,30.32,NNE,22,6.7,12.9,67,0.00,BKN,,0.00,WeatherDisplay:10.37,2013-04-26 02:59:00,
2013-04-25 23:04:00,47.1,37.4,30.32,NNW,338,9.2,11.5,69,0.00,BKN,,0.00,WeatherDisplay:10.37,2013-04-26 03:04:00,
2013-04-25 23:09:00,46.9,38.0,30.32,East,90,7.9,11.5,71,0.00,BKN,,0.00,WeatherDisplay:10.37,2013-04-26 03:09:00,
2013-04-25 23:14:00,46.6,38.1,30.33,North,360,12.4,18.0,72,0.00,BKN,,0.00,WeatherDisplay:10.37,2013-04-26 03:14:00,
2013-04-25 23:19:00,46.0,38.2,30.33,NE,45,8.3,11.5,74,0.00,BKN,,0.00,WeatherDisplay:10.37,2013-04-26 03:19:00,
2013-04-25 23:24:00,45.9,38.4,30.33,NNE,22,9.0,11.5,75,0.00,BKN,,0.00,WeatherDisplay:10.37,2013-04-26 03:24:00,
2013-04-25 23:29:00,45.5,38.0,30.33,NE,45,6.3,9.2,75,0.00,BKN,,0.00,WeatherDisplay:10.37,2013-04-26 03:29:00,
2013-04-25 23:34:00,45.3,38.2,30.33,NNE,22,7.7,11.5,76,0.00,BKN,,0.00,WeatherDisplay:10.37,2013-04-26 03:34:00,
2013-04-25 23:39:00,45.1,38.0,30.34,NNE,22,5.2,9.2,76,0.00,BKN,,0.00,WeatherDisplay:10.37,2013-04-26 03:39:00,
2013-04-25 23:44:00,45.1,38.0,30.34,NNE,22,8.0,9.2,76,0.00,BKN,,0.00,WeatherDisplay:10.37,2013-04-26 03:44:00,
2013-04-25 23:49:00,45.0,37.9,30.34,NNW,338,5.6,10.4,76,0.00,BKN,,0.00,WeatherDisplay:10.37,2013-04-26 03:49:00,
2013-04-25 23:54:00,44.8,37.7,30.34,NE,45,8.7,9.5,76,0.00,BKN,,0.00,WeatherDisplay:10.37,2013-04-26 03:54:00,
2013-04-25 23:59:00,44.6,37.5,30.34,NE,45,4.0,8.1,76,0.00,BKN,,0.00,WeatherDisplay:10.37,2013-04-26 03:59:00,